createdAt,value
2023-03-12T00:00:45.721Z,3.35
2023-03-12T00:05:49.152Z,2.53
2023-03-12T00:10:53.910Z,2.70
2023-03-12T00:15:57.419Z,3.50
2023-03-12T00:21:01.002Z,2.97
2023-03-12T00:26:09.319Z,3.40
2023-03-12T00:31:19.489Z,3.03
2023-03-12T00:36:27.146Z,4.70
2023-03-12T00:41:32.087Z,4.10
2023-03-12T00:46:35.646Z,3.10
2023-03-12T00:51:39.484Z,3.80
2023-03-12T00:56:45.163Z,3.05
2023-03-12T01:01:48.732Z,3.45
2023-03-12T01:06:52.541Z,3.78
2023-03-12T01:11:57.364Z,3.28
2023-03-12T01:17:00.895Z,3.38
2023-03-12T01:22:04.438Z,3.15
2023-03-12T01:27:12.883Z,4.30
2023-03-12T01:32:17.144Z,5.03
2023-03-12T01:37:20.781Z,3.97
2023-03-12T01:42:25.756Z,3.75
2023-03-12T01:47:32.913Z,4.15
2023-03-12T01:52:40.054Z,4.03
2023-03-12T01:57:52.221Z,3.25
2023-03-12T02:03:02.022Z,4.47
2023-03-12T02:08:09.328Z,2.78
2023-03-12T02:13:15.223Z,3.33
2023-03-12T02:18:24.698Z,2.83
2023-03-12T02:23:35.079Z,4.20
2023-03-12T02:28:44.172Z,2.58
2023-03-12T02:33:48.331Z,3.40
2023-03-12T02:38:53.567Z,3.67
2023-03-12T02:44:05.880Z,3.75
2023-03-12T02:49:12.600Z,4.88
2023-03-12T02:54:19.529Z,3.80
2023-03-12T02:59:26.748Z,3.15
2023-03-12T03:04:34.776Z,3.05
2023-03-12T03:09:38.493Z,3.03
2023-03-12T03:14:43.307Z,2.75
2023-03-12T03:19:47.976Z,3.65
2023-03-12T03:24:51.555Z,2.95
2023-03-12T03:29:56.355Z,3.70
2023-03-12T03:35:00.452Z,2.85
2023-03-12T03:40:06.257Z,3.70
2023-03-12T03:45:12.232Z,2.58
2023-03-12T03:55:22.545Z,3.30
2023-03-12T04:00:27.514Z,3.08
2023-03-12T04:05:31.199Z,3.67
2023-03-12T04:10:35.221Z,3.08
2023-03-12T04:15:40.469Z,3.08
2023-03-12T04:20:45.811Z,2.85
2023-03-12T04:25:49.311Z,3.33
2023-03-12T04:30:59.689Z,3.97
2023-03-12T04:36:04.573Z,3.13
2023-03-12T04:41:12.678Z,4.18
2023-03-12T04:46:22.612Z,3.25
2023-03-12T04:51:26.587Z,3.17
2023-03-12T04:56:30.133Z,2.35
2023-03-12T05:01:38.250Z,2.63
2023-03-12T05:06:48.485Z,2.83
2023-03-12T05:11:52.146Z,4.78
2023-03-12T05:16:59.271Z,3.10
2023-03-12T05:22:03.072Z,2.38
2023-03-12T05:27:09.335Z,2.50
2023-03-12T05:32:14.353Z,3.13
2023-03-12T05:37:17.937Z,2.78
2023-03-12T05:42:26.491Z,3.10
2023-03-12T05:47:32.597Z,2.30
2023-03-12T05:52:36.092Z,1.98
2023-03-12T05:57:39.703Z,2.85
2023-03-12T06:02:44.906Z,2.92
2023-03-12T06:07:48.857Z,2.42
2023-03-12T06:12:52.543Z,2.67
2023-03-12T06:17:57.615Z,2.13
2023-03-12T06:23:01.232Z,1.73
2023-03-12T06:28:05.582Z,1.73
2023-03-12T06:33:10.409Z,1.98
2023-03-12T06:38:13.838Z,2.15
2023-03-12T06:43:17.282Z,2.60
2023-03-12T06:48:22.743Z,2.67
2023-03-12T06:53:27.210Z,2.67
2023-03-12T06:58:30.990Z,2.65
2023-03-12T07:03:36.281Z,2.92
2023-03-12T07:08:39.697Z,2.00
2023-03-12T07:13:43.717Z,3.10
2023-03-12T07:18:48.544Z,2.15
2023-03-12T07:23:52.571Z,2.00
2023-03-12T07:28:55.978Z,1.85
2023-03-12T07:34:03.004Z,2.00
2023-03-12T07:39:06.513Z,2.38
2023-03-12T07:44:10.384Z,2.67
2023-03-12T07:49:15.300Z,2.55
2023-03-12T07:54:18.712Z,3.20
2023-03-12T07:59:23.749Z,1.92
2023-03-12T08:04:28.812Z,2.00
2023-03-12T08:09:32.683Z,2.13
2023-03-12T08:14:36.885Z,3.42
2023-03-12T08:19:42.523Z,2.75
2023-03-12T08:24:46.424Z,3.63
2023-03-12T08:29:49.874Z,3.95
2023-03-12T08:34:54.674Z,3.58
2023-03-12T08:39:58.066Z,2.80
2023-03-12T08:45:01.469Z,5.13
2023-03-12T08:50:07.960Z,4.25
2023-03-12T08:55:12.694Z,3.67
2023-03-12T09:00:18.090Z,3.28
2023-03-12T09:05:22.901Z,4.38
2023-03-12T09:10:30.264Z,3.40
2023-03-12T09:15:35.057Z,4.05
2023-03-12T09:20:39.841Z,4.97
2023-03-12T09:25:47.390Z,4.45
2023-03-12T09:30:51.435Z,5.13
2023-03-12T09:36:00.174Z,5.32
2023-03-12T09:41:06.462Z,4.72
2023-03-12T09:46:17.022Z,5.10
2023-03-12T09:51:29.869Z,4.85
2023-03-12T09:56:36.002Z,5.03
2023-03-12T10:01:45.579Z,6.15
2023-03-12T10:06:59.790Z,4.22
2023-03-12T10:12:16.486Z,5.30
2023-03-12T10:17:43.593Z,6.47
2023-03-12T10:22:57.762Z,7.25
2023-03-12T10:28:15.530Z,6.63
2023-03-12T10:33:21.478Z,5.60
2023-03-12T10:38:31.096Z,6.38
2023-03-12T10:43:37.178Z,5.25
2023-03-12T10:48:40.620Z,5.32
2023-03-12T10:53:48.068Z,5.93
2023-03-12T10:58:54.412Z,6.15
2023-03-12T11:04:17.774Z,6.50
2023-03-12T11:09:22.571Z,6.20
2023-03-12T11:14:29.043Z,6.88
2023-03-12T11:19:35.920Z,6.03
2023-03-12T11:24:58.418Z,4.63
2023-03-12T11:30:05.189Z,6.63
2023-03-12T11:35:13.070Z,6.88
2023-03-12T11:40:42.572Z,7.47
2023-03-12T11:46:13.475Z,6.30
2023-03-12T11:51:31.981Z,8.80
2023-03-12T11:56:40.830Z,5.63
2023-03-12T12:02:05.558Z,7.18
2023-03-12T12:07:33.880Z,7.68
2023-03-12T12:12:56.089Z,7.72
2023-03-12T12:18:19.583Z,7.40
2023-03-12T12:23:43.338Z,8.40
2023-03-12T12:29:22.641Z,9.73
2023-03-12T12:35:04.860Z,10.00
2023-03-12T12:40:21.736Z,7.90
2023-03-12T12:45:31.566Z,10.18
2023-03-12T12:50:40.929Z,8.25
2023-03-12T12:55:58.141Z,8.57
2023-03-12T13:01:03.964Z,8.53
2023-03-12T13:06:11.233Z,9.32
2023-03-12T13:11:30.827Z,8.43
2023-03-12T13:16:42.478Z,10.93
2023-03-12T13:22:04.902Z,11.80
2023-03-12T13:27:20.236Z,9.27
2023-03-12T13:33:15.769Z,9.80
2023-03-12T13:38:37.231Z,10.45
2023-03-12T13:43:54.533Z,8.55
2023-03-12T13:49:07.650Z,8.67
2023-03-12T13:54:19.889Z,9.05
2023-03-12T13:59:26.622Z,11.00
2023-03-12T14:04:40.879Z,9.05
2023-03-12T14:09:58.687Z,7.90
2023-03-12T14:15:25.870Z,8.82
2023-03-12T14:20:31.973Z,10.93
2023-03-12T14:25:40.450Z,9.85
2023-03-12T14:30:51.899Z,10.38
2023-03-12T14:36:06.214Z,8.75
2023-03-12T14:41:14.649Z,8.68
2023-03-12T14:46:21.653Z,9.23
2023-03-12T14:51:29.182Z,9.65
2023-03-12T14:56:35.960Z,11.67
2023-03-12T15:01:40.598Z,10.57
2023-03-12T15:06:49.929Z,10.07
2023-03-12T15:11:56.285Z,11.48
2023-03-12T15:17:00.614Z,9.52
2023-03-12T15:22:06.313Z,7.93
2023-03-12T15:27:33.903Z,9.57
2023-03-12T15:32:37.350Z,9.60
2023-03-12T15:37:42.887Z,7.50
2023-03-12T15:42:48.731Z,10.20
2023-03-12T15:47:54.942Z,8.57
2023-03-12T15:53:08.147Z,8.30
2023-03-12T15:58:28.453Z,8.60
2023-03-12T16:03:32.153Z,7.68
2023-03-12T16:08:44.494Z,8.10
2023-03-12T16:13:51.355Z,9.18
2023-03-12T16:18:54.843Z,9.07
2023-03-12T16:23:59.640Z,7.70
2023-03-12T16:29:03.228Z,6.53
2023-03-12T16:34:06.771Z,9.05
2023-03-12T16:39:11.559Z,8.68
2023-03-12T16:44:20.415Z,9.90
2023-03-12T16:49:23.954Z,7.18
2023-03-12T16:54:28.850Z,6.80
2023-03-12T16:59:37.980Z,7.80
2023-03-12T17:04:41.470Z,8.80
2023-03-12T17:09:46.367Z,8.38
2023-03-12T17:14:51.681Z,9.98
2023-03-12T17:19:55.691Z,7.85
2023-03-12T17:25:00.565Z,8.95
2023-03-12T17:30:04.169Z,7.20
2023-03-12T17:35:09.133Z,8.35
2023-03-12T17:40:16.275Z,8.75
2023-03-12T17:45:20.060Z,8.32
2023-03-12T17:50:23.536Z,7.72
2023-03-12T17:55:28.494Z,7.32
2023-03-12T18:00:32.141Z,6.97
2023-03-12T18:05:39.847Z,6.40
2023-03-12T18:10:44.708Z,6.90
2023-03-12T18:15:54.012Z,7.43
2023-03-12T18:20:59.440Z,6.35
2023-03-12T18:26:05.470Z,6.95
2023-03-12T18:31:09.761Z,7.55
2023-03-12T18:36:13.219Z,7.03
2023-03-12T18:41:18.040Z,5.82
2023-03-12T18:46:23.809Z,5.18
2023-03-12T18:51:27.257Z,5.53
2023-03-12T18:56:32.091Z,6.60
2023-03-12T19:01:35.528Z,6.03
2023-03-12T19:06:50.339Z,6.13
2023-03-12T19:11:56.172Z,7.03
2023-03-12T19:16:59.703Z,7.15
2023-03-12T19:22:04.648Z,7.05
2023-03-12T19:27:09.465Z,6.40
2023-03-12T19:32:12.995Z,5.43
2023-03-12T19:37:16.895Z,5.97
2023-03-12T19:42:21.729Z,5.57
2023-03-12T19:47:26.819Z,5.93
2023-03-12T19:52:30.527Z,5.88
2023-03-12T19:57:41.549Z,6.68
2023-03-12T20:02:46.063Z,6.65
2023-03-12T20:07:49.918Z,5.25
2023-03-12T20:12:54.706Z,6.80
2023-03-12T20:17:59.386Z,5.72
2023-03-12T20:23:03.939Z,6.10
2023-03-12T20:28:10.752Z,5.55
2023-03-12T20:33:14.522Z,6.60
2023-03-12T20:38:28.337Z,5.57
2023-03-12T20:43:33.177Z,5.57
2023-03-12T20:48:37.022Z,7.40
2023-03-12T20:53:40.528Z,5.30
2023-03-12T20:58:45.350Z,4.90
2023-03-12T21:03:48.746Z,7.05
2023-03-12T21:08:52.204Z,7.43
2023-03-12T21:13:57.121Z,6.57
2023-03-12T21:19:00.656Z,6.55
2023-03-12T21:24:04.376Z,5.78
2023-03-12T21:29:09.366Z,5.80
2023-03-12T21:34:12.899Z,5.85
2023-03-12T21:39:17.047Z,4.85
2023-03-12T21:44:21.887Z,5.78
2023-03-12T21:49:25.366Z,5.68
2023-03-12T21:54:33.689Z,5.10
2023-03-12T22:04:42.006Z,6.88
2023-03-12T22:09:45.489Z,5.95
2023-03-12T22:14:50.354Z,5.32
2023-03-12T22:19:53.852Z,5.03
2023-03-12T22:24:57.286Z,6.40
2023-03-12T22:30:12.477Z,6.45
2023-03-12T22:35:16.283Z,5.68
2023-03-12T22:40:20.238Z,6.10
2023-03-12T22:45:25.100Z,6.18
2023-03-12T22:50:28.597Z,5.70
2023-03-12T22:55:32.116Z,6.18
2023-03-12T23:00:36.867Z,5.28
2023-03-12T23:05:43.286Z,4.72
2023-03-12T23:11:01.277Z,6.22
2023-03-12T23:16:10.530Z,5.93
2023-03-12T23:21:17.682Z,5.78
2023-03-12T23:26:26.468Z,5.35
2023-03-12T23:31:31.856Z,6.18
2023-03-12T23:36:35.236Z,6.43
2023-03-12T23:41:38.650Z,5.03
2023-03-12T23:46:44.931Z,5.07
2023-03-12T23:51:48.398Z,5.13
2023-03-12T23:56:51.813Z,5.88
